Latest Weather Observations for Coen Airport

IDQ60801

Issued at 9:32 pm EST Thursday 25 August 2016 (issued every 30 minutes, with the page automatically refreshed every 10 minutes)

About weather observations | Map of weather stations | Latest weather observations for QLD | Other Formats
Station Details ID: 027073 Name: COEN AIRPORT Lat: -13.76 Lon: 143.12 Height: 159.3 m
Data from the previous 72 hours. | See also: Recent months at Coen Airport
Date/Time
EST
Temp
°C
App
Temp
°C
Dew
Point
°C
Rel
Hum
%
Delta-T
°C
Wind Press
QNH
hPa
Press
MSL
hPa
Rain since
9am
mm
Dir  Spd
km/h
Gust
km/h
Spd
kts
Gust
kts
25/09:30pm 26.2 28.5 19.8 68 4.2 N 7 11 4 6 1012.3 - 0.0
25/09:00pm 26.5 28.3 19.6 66 4.5 N 9 11 5 6 1012.0 1011.3 0.0
25/08:30pm 26.9 28.4 19.8 65 4.6 N 11 15 6 8 1011.7 - 0.0
25/08:00pm 27.3 29.3 19.1 61 5.3 NNE 7 9 4 5 1011.4 - 0.0
25/07:30pm 28.3 29.6 19.2 57 5.9 NNE 11 19 6 10 1010.8 - 0.0
25/07:00pm 29.2 29.9 18.9 53 6.7 NNE 13 15 7 8 1010.0 - 0.0
25/06:30pm 30.6 31.0 17.3 45 8.5 N 11 17 6 9 1009.5 - 0.0
25/06:00pm 33.0 32.3 15.5 35 11.0 W 13 17 7 9 1009.0 1008.3 0.0
25/05:30pm 34.3 34.3 16.2 34 11.5 W 11 15 6 8 1008.6 - 0.0
25/05:00pm 34.3 34.3 16.2 34 11.5 NNW 11 15 6 8 1008.4 - 0.0
25/04:30pm 34.6 35.2 16.9 35 11.4 SW 9 17 5 9 1008.2 - 0.0
25/04:00pm 34.6 34.5 16.9 35 11.4 NNW 13 20 7 11 1008.0 - 0.0
25/03:30pm 34.2 34.8 17.8 37 10.7 NW 11 20 6 11 1008.1 - 0.0
25/03:00pm 34.7 35.2 18.3 38 10.8 WNW 13 20 7 11 1008.4 1007.7 0.0
25/02:30pm 34.1 35.4 19.4 42 9.8 WSW 11 19 6 10 1008.8 - 0.0
25/02:00pm 32.8 33.5 18.9 43 9.1 W 13 20 7 11 1009.2 - 0.0
25/01:30pm 33.3 35.9 20.4 46 8.7 SE 7 15 4 8 1009.5 - 0.0
25/01:00pm 32.1 33.7 20.0 48 8.1 SW 11 19 6 10 1010.2 - 0.0
25/12:30pm 32.3 33.4 20.5 49 7.9 SW 15 22 8 12 1010.4 - 0.0
25/12:00pm 31.3 33.2 20.6 53 7.2 SSW 11 19 6 10 1011.0 1010.3 0.0
25/11:30am 30.9 33.3 20.8 55 6.8 SSW 9 17 5 9 1011.4 - 0.0
25/11:00am 29.8 31.6 20.4 57 6.2 SSW 11 15 6 8 1011.8 - 0.0
25/10:30am 29.3 31.8 21.0 61 5.6 S 9 15 5 8 1012.4 - 0.0
25/10:00am 28.9 31.4 21.7 65 4.9 S 11 20 6 11 1012.8 - 0.0
25/09:30am 28.0 31.0 22.0 70 4.1 SSW 9 15 5 8 1013.1 - 0.0
25/09:00am 26.8 30.4 22.4 77 3.0 S 7 11 4 6 1013.1 1012.4 0.0
25/08:30am 25.8 29.9 22.3 81 2.4 SE 4 7 2 4 1013.2 - 0.0
25/08:00am 23.7 28.0 21.2 86 1.7 CALM 0 2 0 1 1013.0 - 0.0
25/07:30am 21.8 24.2 19.7 88 1.3 W 6 6 3 3 1012.8 - 0.0
25/07:00am 20.8 23.9 18.6 87 1.4 CALM 0 0 0 0 1012.7 - 0.0
25/06:30am 20.7 23.7 18.5 87 1.4 CALM 0 0 0 0 1012.4 - 0.0
25/06:00am 21.0 23.0 18.8 87 1.4 SE 6 7 3 4 1012.2 1011.5 0.0
25/05:30am 20.7 23.6 18.3 86 1.5 CALM 0 0 0 0 1011.9 - 0.0
25/05:00am 20.6 23.5 18.2 86 1.5 CALM 0 0 0 0 1011.7 - 0.0
25/04:30am 20.7 23.6 18.1 85 1.6 CALM 0 0 0 0 1011.6 - 0.0
25/04:00am 21.3 24.4 18.7 85 1.6 CALM 0 0 0 0 1011.4 - 0.0
25/03:30am 21.5 23.9 18.9 85 1.6 S 4 6 2 3 1011.2 - 0.0
25/03:00am 21.5 24.6 18.7 84 1.8 CALM 0 0 0 0 1011.3 1010.6 0.0
25/02:30am 21.8 25.0 18.8 83 1.9 CALM 0 0 0 0 1011.5 - 0.0
25/02:00am 22.3 25.6 19.1 82 2.0 CALM 0 0 0 0 1011.6 - 0.0
25/01:30am 22.7 26.1 19.3 81 2.2 CALM 0 0 0 0 1011.9 - 0.0
25/01:00am 23.5 27.2 20.0 81 2.3 CALM 0 0 0 0 1012.1 - 0.0
25/12:30am 23.9 27.4 20.4 81 2.3 NE 2 7 1 4 1012.2 - 0.0
25/12:00am 23.8 26.4 20.5 82 2.2 N 7 9 4 5 1012.4 1011.7 0.0
 
Date/Time
EST
Temp
°C
App
Temp
°C
Dew
Point
°C
Rel
Hum
%
Delta-T
°C
Wind Press
QNH
hPa
Press
MSL
hPa
Rain since
9am
mm
Dir  Spd
km/h
Gust
km/h
Spd
kts
Gust
kts
24/11:30pm 23.4 26.0 20.0 81 2.2 NNW 6 9 3 5 1012.7 - 0.0
24/11:00pm 23.7 26.1 20.0 80 2.4 N 7 9 4 5 1012.6 - 0.0
24/10:30pm 24.3 26.9 20.4 79 2.6 ENE 7 11 4 6 1012.8 - 0.0
24/10:00pm 24.2 26.7 20.3 79 2.5 NE 7 11 4 6 1012.7 - 0.0
24/09:30pm 24.0 26.5 19.9 78 2.7 N 6 9 3 5 1012.7 - 0.0
24/09:00pm 24.2 25.4 19.9 77 2.8 WNW 13 17 7 9 1012.5 1011.8 0.0
24/08:30pm 24.4 25.9 19.7 75 3.0 N 11 15 6 8 1011.6 - 0.0
24/08:00pm 24.8 26.0 19.8 74 3.2 NNE 13 20 7 11 1011.1 - 0.0
24/07:30pm 25.3 26.1 19.9 72 3.5 NE 15 20 8 11 1010.5 - 0.0
24/07:00pm 25.7 25.7 19.8 70 3.8 NE 19 28 10 15 1009.8 - 0.0
24/06:30pm 26.3 26.1 19.7 67 4.3 NE 20 32 11 17 1009.4 - 0.0
24/06:00pm 27.4 27.3 19.5 62 5.2 NE 19 28 10 15 1008.8 1008.1 0.0
24/05:30pm 29.6 29.9 20.5 58 6.1 NE 19 28 10 15 1008.3 - 0.0
24/05:00pm 30.6 30.2 20.2 53 6.9 NE 22 30 12 16 1007.8 - 0.0
24/04:30pm 32.0 32.4 20.6 51 7.6 ENE 19 28 10 15 1007.7 - 0.0
24/04:00pm 32.2 31.8 20.1 48 8.1 NE 22 30 12 16 1007.6 - 0.0
24/03:30pm 33.0 33.3 20.5 47 8.4 ENE 19 30 10 16 1007.8 - 0.0
24/03:00pm 34.6 35.4 18.2 37 10.7 NE 11 19 6 10 1008.0 1007.3 0.0
24/02:30pm 32.8 34.0 18.2 42 9.5 ENE 9 24 5 13 1008.5 - 0.0
24/02:00pm 34.0 35.7 19.3 42 9.7 NW 9 17 5 9 1009.0 - 0.0
24/01:30pm 34.3 34.2 19.5 41 9.8 NW 19 26 10 14 1009.2 - 0.0
24/01:00pm 32.1 33.6 19.0 45 8.6 N 9 17 5 9 1009.9 - 0.0
24/12:30pm 32.8 34.6 20.3 47 8.4 NW 11 17 6 9 1010.6 - 0.0
24/12:00pm 32.0 35.0 21.2 52 7.3 NE 7 22 4 12 1011.3 1010.6 0.0
24/11:30am 31.1 33.4 21.3 56 6.6 NNW 11 19 6 10 1011.8 - 0.0
24/11:00am 30.3 32.8 21.7 60 5.8 NNE 11 19 6 10 1012.4 - 0.0
24/10:30am 29.5 32.0 21.7 63 5.3 NNE 11 17 6 9 1012.8 - 0.0
24/10:00am 28.5 31.8 22.5 70 4.1 NNE 9 17 5 9 1013.1 - 0.0
24/09:30am 27.2 29.9 22.2 74 3.4 NNE 11 17 6 9 1013.3 - 0.0
24/09:00am 26.1 29.1 22.0 78 2.8 NE 9 13 5 7 1013.4 1012.7 0.0
24/08:30am 25.3 29.3 22.0 82 2.2 ENE 4 9 2 5 1013.0 - 0.0
24/08:00am 23.0 25.6 20.5 86 1.6 SSE 7 9 4 5 1012.7 - 0.0
24/07:30am 20.6 21.9 18.5 88 1.3 SE 9 11 5 6 1012.6 - 0.0
24/07:00am 19.4 20.6 17.4 88 1.2 SE 7 9 4 5 1012.4 - 0.0
24/06:30am 19.4 21.6 17.4 88 1.2 S 2 6 1 3 1012.2 - 0.0
24/06:00am 18.6 19.9 16.2 86 1.4 SE 4 6 2 3 1011.8 1011.1 0.0
24/05:30am 18.8 19.8 16.4 86 1.4 SSE 6 7 3 4 1011.5 - 0.0
24/05:00am 18.8 20.9 16.2 85 1.6 CALM 0 0 0 0 1011.0 - 0.0
24/04:30am 19.2 21.4 16.6 85 1.6 CALM 0 0 0 0 1010.7 - 0.0
24/04:00am 19.2 21.3 16.2 83 1.8 CALM 0 0 0 0 1010.4 - 0.0
24/03:30am 19.6 21.8 16.6 83 1.8 CALM 0 0 0 0 1010.4 - 0.0
24/03:00am 20.5 23.0 17.3 82 2.0 CALM 0 0 0 0 1010.6 1009.9 0.0
24/02:30am 21.4 23.2 18.2 82 2.0 SSE 6 7 3 4 1011.0 - 0.0
24/02:00am 21.9 23.3 18.7 82 2.0 S 9 11 5 6 1011.3 - 0.0
24/01:30am 21.9 22.8 18.5 81 2.1 S 11 13 6 7 1011.4 - 0.0
24/01:00am 21.5 22.7 18.3 82 2.0 S 9 13 5 7 1011.6 - 0.0
24/12:30am 21.2 22.8 17.8 81 2.1 S 6 11 3 6 1011.7 - 0.0
24/12:00am 21.4 23.5 18.0 81 2.1 N 4 6 2 3 1011.8 1011.1 0.0
 
Date/Time
EST
Temp
°C
App
Temp
°C
Dew
Point
°C
Rel
Hum
%
Delta-T
°C
Wind Press
QNH
hPa
Press
MSL
hPa
Rain since
9am
mm
Dir  Spd
km/h
Gust
km/h
Spd
kts
Gust
kts
23/11:30pm 22.4 24.4 18.8 80 2.3 NNE 6 13 3 7 1011.7 - 0.0
23/11:00pm 22.8 24.1 19.2 80 2.3 NNE 11 15 6 8 1011.4 - 0.0
23/10:30pm 22.9 23.3 19.1 79 2.4 NNE 15 22 8 12 1011.5 - 0.0
23/10:00pm 23.1 23.5 19.1 78 2.6 NE 15 24 8 13 1011.5 - 0.0
23/09:30pm 23.1 23.0 18.8 77 2.7 NE 17 24 9 13 1011.4 - 0.0
23/09:00pm 23.2 23.6 18.9 77 2.7 NNE 15 22 8 12 1011.4 1010.7 0.0
23/08:30pm 23.3 23.9 18.6 75 3.0 NE 13 17 7 9 1011.1 - 0.0
23/08:00pm 23.5 23.7 18.6 74 3.1 NE 15 24 8 13 1010.6 - 0.0
23/07:30pm 23.6 22.9 18.3 72 3.4 NE 19 28 10 15 1010.2 - 0.0
23/07:00pm 24.0 23.3 18.2 70 3.7 NE 19 28 10 15 1009.7 - 0.0
23/06:30pm 24.7 23.4 18.2 67 4.1 NE 22 33 12 18 1009.5 - 0.0
23/06:00pm 25.9 25.0 18.1 62 5.0 NE 20 32 11 17 1009.0 1008.3 0.0
23/05:30pm 27.4 26.6 18.4 58 5.8 NE 20 30 11 16 1008.5 - 0.0
23/05:00pm 28.3 27.0 18.1 54 6.5 NE 22 33 12 18 1008.3 - 0.0
23/04:30pm 29.3 28.4 18.1 51 7.2 NE 20 30 11 16 1008.2 - 0.0
23/04:00pm 30.1 29.4 18.2 49 7.7 NE 19 32 10 17 1008.0 - 0.0
23/03:30pm 30.3 29.4 18.1 48 7.9 NNE 20 30 11 16 1008.1 - 0.0
23/03:00pm 30.6 30.2 18.0 47 8.1 ENE 17 24 9 13 1008.3 1007.6 0.0
23/02:30pm 30.5 29.0 17.6 46 8.3 NNE 22 33 12 18 1008.7 - 0.0
23/02:00pm 31.6 30.5 18.6 46 8.5 NE 22 28 12 15 1008.9 - 0.0
23/01:30pm 31.5 31.1 18.8 46 8.3 NNE 19 30 10 16 1009.3 - 0.0
23/01:00pm 30.6 29.9 18.7 49 7.7 N 20 30 11 16 1009.9 - 0.0
23/12:30pm 30.5 30.2 19.2 51 7.4 N 19 32 10 17 1010.7 - 0.0
23/12:00pm 30.6 31.8 19.9 52 7.1 ENE 13 28 7 15 1011.4 1010.7 0.0
23/11:30am 30.4 31.6 20.6 55 6.5 ENE 15 22 8 12 1012.0 - 0.0
23/11:00am 28.6 29.8 19.8 59 5.8 NE 13 20 7 11 1012.3 - 0.0
23/10:30am 28.4 28.9 20.1 60 5.5 NE 17 28 9 15 1012.8 - 0.0
23/10:00am 27.4 27.5 20.0 64 4.9 NE 19 26 10 14 1013.2 - 0.0
23/09:30am 26.6 27.0 20.7 70 3.9 NE 19 26 10 14 1013.3 - 0.0
23/09:00am 24.9 27.6 20.6 77 2.8 E 7 13 4 7 1013.4 1012.7 0.0
23/08:30am 23.1 25.6 19.9 82 2.1 S 6 7 3 4 1013.2 - 0.0
23/08:00am 21.2 23.1 18.6 85 1.6 SSE 6 7 3 4 1013.1 - 0.0
23/07:30am 18.6 19.7 16.6 88 1.2 SSE 6 7 3 4 1012.9 - 0.0
23/07:00am 16.9 17.2 14.9 88 1.2 SSE 7 7 4 4 1012.6 - 0.0
23/06:30am 16.5 16.5 14.3 87 1.3 SSE 7 9 4 5 1012.3 - 0.0
23/06:00am 16.8 17.9 14.6 87 1.3 SSE 2 6 1 3 1012.1 1011.4 0.0
23/05:30am 16.8 18.2 14.4 86 1.4 CALM 0 0 0 0 1011.9 - 0.0
23/05:00am 17.2 18.8 14.8 86 1.4 CALM 0 0 0 0 1011.6 - 0.0
23/04:30am 16.3 17.5 13.8 85 1.4 CALM 0 0 0 0 1011.5 - 0.0
23/04:00am 16.2 17.3 13.5 84 1.5 CALM 0 2 0 1 1011.3 - 0.0
23/03:30am 17.0 17.2 14.3 84 1.6 SSE 6 7 3 4 1011.1 - 0.0
23/03:00am 18.0 19.3 15.1 83 1.7 SSW 2 6 1 3 1011.0 1010.3 0.0
23/02:30am 18.4 18.5 15.5 83 1.7 S 9 11 5 6 1011.1 - 0.0
23/02:00am 17.7 17.8 14.4 81 1.9 SSE 7 9 4 5 1011.3 - 0.0
23/01:30am 18.0 18.0 14.3 79 2.1 SSE 7 9 4 5 1011.5 - 0.0
23/01:00am 18.3 19.6 14.2 77 2.4 CALM 0 6 0 3 1011.7 - 0.0
23/12:30am 20.3 22.2 15.7 75 2.8 CALM 0 0 0 0 1012.0 - 0.0
23/12:00am 22.0 23.3 17.2 74 3.0 ENE 6 9 3 5 1012.0 1011.3 0.0
 
Date/Time
EST
Temp
°C
App
Temp
°C
Dew
Point
°C
Rel
Hum
%
Delta-T
°C
Wind Press
QNH
hPa
Press
MSL
hPa
Rain since
9am
mm
Dir  Spd
km/h
Gust
km/h
Spd
kts
Gust
kts
22/11:30pm 22.4 22.9 17.5 74 3.0 NE 11 19 6 10 1012.1 - 0.0
22/11:00pm 22.4 23.4 17.8 75 2.9 NE 9 20 5 11 1012.3 - 0.0
22/10:30pm 22.0 22.8 17.4 75 2.9 NE 9 15 5 8 1012.3 - 0.0
22/10:00pm 22.2 23.1 17.6 75 2.9 NE 9 15 5 8 1012.2 - 0.0

Other Formats:

Comma delimited format used in spreadsheet applications
http://www.bom.gov.au/fwo/IDQ60801/IDQ60801.94183.axf

JavaScript Object Notation format (JSON) in row-major order
http://www.bom.gov.au/fwo/IDQ60801/IDQ60801.94183.json